Time;durP1;ratioP1;P1;durP2;ratioP2;P2;SDS_P1;SDS_P2;PMS_P1;PMS_P2;Temp;Humidity;BMP_temperature;BMP_pressure;BME280_temperature;BME280_humidity;BME280_pressure;Samples;Min_cycle;Max_cycle;Signal;HPM_P1;HPM_P2
2020/12/27 00:00:18;;;;;;;52.97;29.00;;;;;;;-3.18;77.78;99397.67;119553;1151;65592;-84
2020/12/27 00:03:02;;;;;;;52.30;27.10;;;;;;;-3.20;77.89;99388.99;119291;1151;65121;-84
2020/12/27 00:05:29;;;;;;;60.30;30.00;;;;;;;-3.21;78.16;99383.77;119401;1151;65152;-83
2020/12/27 00:07:55;;;;;;;54.83;28.30;;;;;;;-3.25;78.05;99392.50;119174;1151;65029;-84
2020/12/27 00:10:22;;;;;;;54.27;27.60;;;;;;;-3.30;77.63;99387.30;119292;1150;65264;-83
2020/12/27 00:12:48;;;;;;;45.10;26.70;;;;;;;-3.31;78.21;99393.40;118730;1151;65129;-79
2020/12/27 00:15:15;;;;;;;42.03;26.00;;;;;;;-3.27;78.26;99382.06;118615;1150;65169;-79
2020/12/27 00:17:43;;;;;;;51.93;26.13;;;;;;;-3.26;78.10;99386.42;118770;1151;65180;-78
2020/12/27 00:20:10;;;;;;;45.30;25.10;;;;;;;-3.23;77.83;99377.73;118375;1151;65108;-80
2020/12/27 00:22:37;;;;;;;42.70;24.03;;;;;;;-3.24;77.90;99369.02;118477;1151;65255;-81
2020/12/27 00:25:04;;;;;;;45.43;23.37;;;;;;;-3.26;77.92;99359.50;118673;1150;65146;-78
2020/12/27 00:27:30;;;;;;;40.60;22.20;;;;;;;-3.28;77.50;99358.64;118992;1150;65196;-79
2020/12/27 00:29:57;;;;;;;42.95;24.50;;;;;;;-3.31;77.51;99349.95;119026;1151;65121;-80
2020/12/27 00:32:30;;;;;;;48.10;24.55;;;;;;;-3.32;78.18;99357.77;119077;1151;65149;-79
2020/12/27 00:34:56;;;;;;;39.73;23.87;;;;;;;-3.33;78.20;99354.30;119041;1151;65159;-79
2020/12/27 00:37:23;;;;;;;44.15;27.40;;;;;;;-3.32;77.96;99355.16;119006;1151;65149;-80
2020/12/27 00:39:50;;;;;;;38.85;22.25;;;;;;;-3.35;77.65;99357.79;119250;1151;65623;-81
2020/12/27 00:42:16;;;;;;;34.90;22.67;;;;;;;-3.39;77.89;99354.34;119178;1150;65069;-78
2020/12/27 00:44:43;;;;;;;32.35;19.10;;;;;;;-3.40;77.59;99349.98;119099;1151;65252;-80
2020/12/27 00:47:09;;;;;;;25.90;15.30;;;;;;;-3.40;77.32;99346.52;119047;1151;65124;-80
2020/12/27 00:49:35;;;;;;;22.50;13.13;;;;;;;-3.41;78.21;99348.27;118995;1150;65232;-80
2020/12/27 00:52:02;;;;;;;24.40;14.40;;;;;;;-3.40;77.94;99338.70;118987;1151;65178;-79
2020/12/27 00:54:29;;;;;;;21.47;11.63;;;;;;;-3.41;77.41;99344.80;119227;1150;65140;-79
2020/12/27 00:56:55;;;;;;;19.60;11.07;;;;;;;-3.41;77.47;99334.38;119024;1150;65178;-78
2020/12/27 00:59:22;;;;;;;16.07;10.10;;;;;;;-3.40;77.67;99328.28;119228;1150;65240;-79
2020/12/27 01:01:54;;;;;;;17.53;10.00;;;;;;;-3.43;77.74;99320.48;119236;1149;65143;-81
2020/12/27 01:04:21;;;;;;;15.77;9.73;;;;;;;-3.43;77.17;99331.77;119259;1150;65589;-81
2020/12/27 01:06:48;;;;;;;16.83;10.00;;;;;;;-3.44;77.22;99326.59;119031;1151;65140;-78
2020/12/27 01:09:14;;;;;;;17.23;11.07;;;;;;;-3.43;77.29;99317.88;119258;1151;65149;-78
2020/12/27 01:11:44;;;;;;;19.60;10.60;;;;;;;-3.42;77.52;99310.07;118961;1151;65203;-80
2020/12/27 01:14:11;;;;;;;23.27;12.35;;;;;;;-3.44;76.97;99306.60;119264;1150;65120;-78
2020/12/27 01:16:37;;;;;;;23.47;11.37;;;;;;;-3.45;77.55;99315.30;119049;1151;65234;-80
2020/12/27 01:19:04;;;;;;;21.70;11.77;;;;;;;-3.45;77.58;99304.88;119118;1150;65272;-80
2020/12/27 01:21:41;;;;;;;18.70;10.63;;;;;;;-3.43;77.50;99302.25;119113;1150;65102;-79
2020/12/27 01:24:08;;;;;;;16.35;9.85;;;;;;;-3.46;76.99;99294.45;119355;1150;65123;-78
2020/12/27 01:26:35;;;;;;;19.90;10.83;;;;;;;-3.48;77.49;99294.45;119292;1150;65111;-80
2020/12/27 01:29:04;;;;;;;16.43;9.27;;;;;;;-3.48;77.27;99291.84;119008;1151;65117;-79
2020/12/27 01:31:31;;;;;;;17.90;8.90;;;;;;;-3.47;76.75;99290.13;119307;1150;65125;-78
2020/12/27 01:33:58;;;;;;;13.87;7.60;;;;;;;-3.46;77.24;99289.25;118917;1149;65114;-80
2020/12/27 01:36:33;;;;;;;15.50;8.00;;;;;;;-3.46;76.73;99276.22;118970;1151;65251;-79
2020/12/27 01:39:03;;;;;;;15.60;8.07;;;;;;;-3.47;77.49;99284.92;119303;1151;65154;-81
2020/12/27 01:41:30;;;;;;;14.85;8.15;;;;;;;-3.47;76.83;99282.31;119228;1151;65118;-79
2020/12/27 01:44:03;;;;;;;10.97;8.00;;;;;;;-3.46;77.32;99271.01;118987;1151;65197;-79
2020/12/27 01:46:31;;;;;;;14.27;7.33;;;;;;;-3.45;76.67;99278.83;119028;1151;65166;-79
2020/12/27 01:48:58;;;;;;;11.80;7.10;;;;;;;-3.45;76.67;99277.94;119249;1150;65203;-79
2020/12/27 01:51:25;;;;;;;8.77;5.73;;;;;;;-3.47;77.38;99280.57;119009;1151;65224;-81
2020/12/27 01:53:51;;;;;;;13.87;7.30;;;;;;;-3.46;76.91;99271.01;119054;1151;65110;-79
2020/12/27 01:56:25;;;;;;;10.77;6.50;;;;;;;-3.46;77.45;99274.47;119089;1151;65178;-79
2020/12/27 01:58:57;;;;;;;10.43;5.93;;;;;;;-3.45;77.28;99271.02;119371;1150;65223;-79
2020/12/27 02:01:24;;;;;;;9.17;5.77;;;;;;;-3.46;77.54;99264.05;119154;1151;65129;-79
2020/12/27 02:03:50;;;;;;;10.10;6.13;;;;;;;-3.43;77.67;99258.81;119106;1151;65103;-79
2020/12/27 02:06:17;;;;;;;11.93;5.77;;;;;;;-3.40;77.52;99260.54;118960;1151;65150;-78
2020/12/27 02:08:44;;;;;;;9.30;5.43;;;;;;;-3.44;77.33;99257.09;119031;1151;65034;-79
2020/12/27 02:11:11;;;;;;;11.70;5.70;;;;;;;-3.50;76.90;99244.13;118922;1151;65161;-79
2020/12/27 02:13:58;;;;;;;11.97;5.70;;;;;;;-3.56;77.30;99247.60;119225;1151;65146;-80
2020/12/27 02:16:26;;;;;;;8.93;5.40;;;;;;;-3.53;76.84;99254.53;119015;1151;65127;-79
2020/12/27 02:18:54;;;;;;;10.20;5.93;;;;;;;-3.58;77.52;99249.38;119008;1151;65120;-79
2020/12/27 02:21:22;;;;;;;8.83;5.50;;;;;;;-3.60;77.51;99251.12;119021;1151;65559;-79
2020/12/27 02:23:49;;;;;;;9.17;5.80;;;;;;;-3.60;77.39;99247.66;119255;1150;65120;-81
2020/12/27 02:26:15;;;;;;;10.80;6.17;;;;;;;-3.59;77.31;99241.56;118978;1151;65274;-81
2020/12/27 02:28:42;;;;;;;9.87;5.80;;;;;;;-3.62;76.91;99231.16;118672;1151;65111;-81
2020/12/27 02:31:08;;;;;;;8.30;5.47;;;;;;;-3.63;77.30;99232.05;119135;1151;65096;-80
2020/12/27 02:33:35;;;;;;;9.27;5.90;;;;;;;-3.65;76.58;99219.02;119090;1151;65127;-80
2020/12/27 02:36:01;;;;;;;8.30;6.00;;;;;;;-3.63;77.09;99216.42;119132;1151;65127;-79
2020/12/27 02:38:28;;;;;;;8.80;6.57;;;;;;;-3.63;77.04;99209.47;119083;1151;65303;-81
2020/12/27 02:40:54;;;;;;;11.87;6.97;;;;;;;-3.64;76.40;99197.30;119046;1151;65162;-81
2020/12/27 02:43:20;;;;;;;13.60;8.67;;;;;;;-3.63;76.52;99196.45;118925;1151;65156;-81
2020/12/27 02:45:48;;;;;;;22.80;11.70;;;;;;;-3.61;77.41;99194.67;119040;1151;65049;-81
2020/12/27 02:48:14;;;;;;;20.97;11.27;;;;;;;-3.61;76.95;99201.63;119024;1151;65135;-81
2020/12/27 02:50:41;;;;;;;19.35;12.80;;;;;;;-3.63;77.27;99195.59;119086;1151;65119;-79
2020/12/27 02:53:07;;;;;;;18.83;11.00;;;;;;;-3.66;76.99;99196.47;119145;1151;65145;-81
2020/12/27 02:55:34;;;;;;;16.82;9.10;;;;;;;-3.67;77.42;99188.66;118731;1151;65126;-81
2020/12/27 02:58:00;;;;;;;14.87;7.67;;;;;;;-3.68;76.79;99198.21;119099;1151;65124;-81
2020/12/27 03:00:33;;;;;;;14.00;8.27;;;;;;;-3.70;76.73;99186.93;119130;1151;65115;-79
2020/12/27 03:03:00;;;;;;;17.10;8.20;;;;;;;-3.70;76.91;99189.53;119006;1151;65153;-81
2020/12/27 03:05:26;;;;;;;15.73;7.40;;;;;;;-3.72;76.61;99195.63;119128;1151;65150;-79
2020/12/27 03:07:52;;;;;;;12.10;7.40;;;;;;;-3.72;77.20;99180.86;118965;1151;65236;-81
2020/12/27 03:10:19;;;;;;;12.60;6.70;;;;;;;-3.73;77.46;99176.54;119085;1151;65132;-81
2020/12/27 03:12:47;;;;;;;9.23;6.47;;;;;;;-3.72;76.72;99162.63;119066;1151;65140;-81
2020/12/27 03:15:14;;;;;;;10.97;5.77;;;;;;;-3.67;76.98;99160.00;118992;1151;65187;-78
2020/12/27 03:17:40;;;;;;;8.77;6.03;;;;;;;-3.70;77.47;99153.08;119016;1151;65104;-79
2020/12/27 03:20:16;;;;;;;13.23;6.53;;;;;;;-3.73;77.19;99152.25;118999;1151;65142;-80
2020/12/27 03:22:43;;;;;;;13.25;6.40;;;;;;;-3.76;77.32;99153.13;118527;1151;65177;-79
2020/12/27 03:25:10;;;;;;;10.45;6.10;;;;;;;-3.78;76.89;99140.11;119011;1151;65101;-81
2020/12/27 03:27:43;;;;;;;8.37;5.40;;;;;;;-3.77;77.12;99133.16;119016;1151;65220;-79
2020/12/27 03:30:34;;;;;;;9.60;5.40;;;;;;;-3.74;77.52;99127.92;119058;1151;65143;-79
2020/12/27 03:33:22;;;;;;;9.13;5.50;;;;;;;-3.74;76.60;99120.11;119055;1151;65566;-80
2020/12/27 03:35:55;;;;;;;8.03;6.30;;;;;;;-3.75;77.31;99118.39;119097;1151;65229;-77
2020/12/27 03:38:23;;;;;;;7.37;5.53;;;;;;;-3.75;76.62;99110.58;118460;1151;65124;-80
2020/12/27 03:40:49;;;;;;;8.30;5.60;;;;;;;-3.77;77.09;99107.97;118824;1151;65101;-79
2020/12/27 03:43:16;;;;;;;8.87;6.13;;;;;;;-3.76;76.76;99108.86;119124;1151;65131;-81
2020/12/27 03:45:42;;;;;;;9.10;6.60;;;;;;;-3.77;76.54;99102.77;118898;1151;65210;-81
2020/12/27 03:48:09;;;;;;;11.33;7.20;;;;;;;-3.79;76.62;99091.52;118541;1151;65073;-80
2020/12/27 03:50:35;;;;;;;9.53;6.70;;;;;;;-3.77;76.82;99094.95;118515;1151;65162;-78
2020/12/27 03:53:02;;;;;;;10.63;7.70;;;;;;;-3.77;76.44;99088.89;118575;1151;65207;-79
2020/12/27 03:55:28;;;;;;;7.55;6.30;;;;;;;-3.80;76.39;99089.77;118626;1151;65118;-79
2020/12/27 03:57:55;;;;;;;11.60;6.13;;;;;;;-3.80;76.57;99084.56;118691;1151;65200;-80
2020/12/27 04:00:21;;;;;;;8.60;5.23;;;;;;;-3.78;76.49;99079.36;118789;1151;65104;-79
2020/12/27 04:02:48;;;;;;;6.45;5.55;;;;;;;-3.79;76.79;99075.01;119115;1151;65038;-80
2020/12/27 04:05:14;;;;;;;7.75;5.65;;;;;;;-3.84;77.00;99067.26;119065;1151;65133;-81
2020/12/27 04:07:40;;;;;;;8.80;5.50;;;;;;;-3.88;76.21;99065.54;119022;1151;65143;-82
2020/12/27 04:10:09;;;;;;;11.55;6.05;;;;;;;-3.86;76.67;99073.35;119144;1151;65101;-81
2020/12/27 04:12:35;;;;;;;7.60;5.15;;;;;;;-3.86;77.17;99070.75;119106;1151;65157;-81
2020/12/27 04:15:02;;;;;;;8.80;5.67;;;;;;;-3.86;76.33;99061.19;119108;1151;65545;-80
2020/12/27 04:17:28;;;;;;;7.65;5.80;;;;;;;-3.85;76.64;99054.23;119131;1151;65621;-83
2020/12/27 04:19:56;;;;;;;6.93;5.50;;;;;;;-3.82;76.61;99069.83;119148;1151;65101;-80
2020/12/27 04:22:23;;;;;;;7.87;5.80;;;;;;;-3.81;76.37;99056.81;119066;1151;65149;-80
2020/12/27 04:24:49;;;;;;;9.60;5.93;;;;;;;-3.78;76.55;99061.13;119147;1151;65102;-80
2020/12/27 04:27:16;;;;;;;7.80;5.43;;;;;;;-3.79;76.66;99049.86;119084;1151;65191;-80
2020/12/27 04:29:42;;;;;;;6.93;5.37;;;;;;;-3.78;77.09;99037.70;119112;1151;65174;-81
2020/12/27 04:32:09;;;;;;;7.70;5.65;;;;;;;-3.79;77.00;99035.95;119133;1151;65152;-80
2020/12/27 04:34:35;;;;;;;7.35;5.90;;;;;;;-3.80;77.04;99031.63;119017;1151;65153;-81
2020/12/27 04:37:01;;;;;;;9.53;5.77;;;;;;;-3.82;76.72;99012.55;118963;1151;65133;-81
2020/12/27 04:39:28;;;;;;;12.77;10.03;;;;;;;-3.87;76.57;99016.94;118545;1151;65134;-78
2020/12/27 04:41:54;;;;;;;9.57;7.43;;;;;;;-3.89;76.18;99016.11;118632;1151;65195;-81
2020/12/27 04:44:22;;;;;;;11.25;8.30;;;;;;;-3.87;76.21;99017.82;119164;1151;65124;-81
2020/12/27 04:46:51;;;;;;;11.43;7.50;;;;;;;-3.86;76.78;99016.08;119105;1151;65216;-81
2020/12/27 04:49:18;;;;;;;9.40;7.37;;;;;;;-3.83;76.27;99022.11;119088;1151;65119;-80
2020/12/27 04:51:47;;;;;;;10.97;7.07;;;;;;;-3.82;76.46;99009.95;119117;1151;65127;-80
2020/12/27 04:54:13;;;;;;;7.33;6.33;;;;;;;-3.83;76.80;99009.09;118999;1151;65210;-81
2020/12/27 04:56:44;;;;;;;9.03;6.10;;;;;;;-3.86;76.36;99003.91;118915;1150;65044;-81
2020/12/27 04:59:10;;;;;;;8.30;5.25;;;;;;;-3.90;76.15;99010.02;118717;1151;65497;-81
2020/12/27 05:01:39;;;;;;;7.90;5.50;;;;;;;-3.92;76.76;99019.59;118897;1151;65568;-81
2020/12/27 05:04:05;;;;;;;9.85;6.30;;;;;;;-3.91;76.02;99016.11;119034;1151;65082;-81
2020/12/27 05:06:32;;;;;;;17.27;9.40;;;;;;;-3.92;76.14;99010.90;119039;1151;65187;-79
2020/12/27 05:08:59;;;;;;;12.70;9.10;;;;;;;-3.97;76.26;99006.61;119068;1151;65129;-80
2020/12/27 05:11:28;;;;;;;10.77;7.37;;;;;;;-4.01;75.50;99004.04;119022;1150;65127;-79
2020/12/27 05:13:54;;;;;;;8.27;7.20;;;;;;;-4.04;76.14;99007.53;119007;1151;65127;-79
2020/12/27 05:16:21;;;;;;;13.53;8.70;;;;;;;-4.03;75.67;99010.99;118995;1151;65102;-79
2020/12/27 05:18:54;;;;;;;18.77;12.10;;;;;;;-4.06;76.51;99011.02;119043;1151;65184;-79
2020/12/27 05:21:23;;;;;;;19.33;12.87;;;;;;;-4.11;76.71;99000.64;119033;1151;65210;-81
2020/12/27 05:23:50;;;;;;;;;;;;;;;-4.17;76.84;99000.70;118782;1151;65121;-80
2020/12/27 05:26:16;;;;;;;19.60;14.23;;;;;;;-4.22;76.16;99011.13;118828;1151;65216;-80
2020/12/27 05:28:45;;;;;;;19.93;14.30;;;;;;;-4.25;76.87;99011.16;119146;1151;65185;-80
2020/12/27 05:31:14;;;;;;;21.00;15.63;;;;;;;-4.23;77.34;99009.41;119063;1151;65754;-80
2020/12/27 05:33:42;;;;;;;26.83;18.17;;;;;;;-4.25;77.01;99005.95;119015;1151;65146;-80
2020/12/27 05:36:14;;;;;;;29.00;20.67;;;;;;;-4.30;77.33;99002.52;119143;1151;65124;-79
2020/12/27 05:38:47;;;;;;;31.60;21.53;;;;;;;-4.36;76.71;99002.58;119082;1151;65131;-82
2020/12/27 05:41:14;;;;;;;33.53;23.00;;;;;;;-4.39;76.94;99005.20;119033;1151;65188;-80
2020/12/27 05:43:41;;;;;;;32.13;22.47;;;;;;;-4.42;77.84;99000.88;118944;1150;65142;-79
2020/12/27 05:46:07;;;;;;;32.70;22.25;;;;;;;-4.45;77.83;98994.81;119078;1151;65124;-80
2020/12/27 05:48:34;;;;;;;36.43;22.47;;;;;;;-4.49;77.80;98986.18;119038;1151;65127;-79
2020/12/27 05:51:03;;;;;;;32.63;21.57;;;;;;;-4.53;77.89;98994.90;119037;1151;65101;-80
2020/12/27 05:53:36;;;;;;;30.77;21.43;;;;;;;-4.55;78.12;98990.58;119119;1151;65104;-79
2020/12/27 05:56:07;;;;;;;30.60;22.23;;;;;;;-4.56;77.50;98984.48;119103;1151;65223;-80
2020/12/27 05:58:34;;;;;;;35.10;23.50;;;;;;;-4.59;78.46;98974.11;119104;1151;65108;-79
2020/12/27 06:01:05;;;;;;;37.37;23.13;;;;;;;-4.64;78.00;98976.73;119042;1151;65101;-79
2020/12/27 06:03:55;;;;;;;33.53;20.43;;;;;;;-4.65;78.53;98972.42;119364;1151;65128;-79
2020/12/27 06:06:40;;;;;;;30.12;20.65;;;;;;;-4.66;78.06;98965.50;119329;1150;65154;-79
2020/12/27 06:09:08;;;;;;;26.40;20.40;;;;;;;-4.67;78.66;98960.30;119222;1151;65177;-79
2020/12/27 06:11:45;;;;;;;28.03;20.93;;;;;;;-4.68;78.46;98958.59;118999;1151;65167;-79
2020/12/27 06:14:15;;;;;;;27.47;19.33;;;;;;;-4.70;78.02;98958.58;119051;1151;65200;-81
2020/12/27 06:16:44;;;;;;;25.40;18.57;;;;;;;-4.72;78.32;98952.52;118957;1151;65140;-81
2020/12/27 06:19:46;;;;;;;27.80;18.30;;;;;;;-4.73;78.20;98944.75;119326;1151;65146;-79
2020/12/27 06:22:25;;;;;;;29.47;20.37;;;;;;;-4.75;78.72;98947.34;119319;1150;65379;-81
2020/12/27 06:24:53;;;;;;;29.65;22.50;;;;;;;-4.77;78.43;98962.08;119240;1150;65579;-81
2020/12/27 06:27:19;;;;;;;30.00;21.03;;;;;;;-4.79;78.57;98969.05;119361;1150;65580;-79
2020/12/27 06:29:52;;;;;;;36.57;21.00;;;;;;;-4.79;78.86;98976.84;119266;1151;65151;-80
2020/12/27 06:32:24;;;;;;;28.20;18.85;;;;;;;-4.82;78.81;98973.38;119112;1151;65217;-80
2020/12/27 06:34:51;;;;;;;32.63;20.67;;;;;;;-4.84;78.55;98970.81;119255;1149;65226;-80
2020/12/27 06:37:17;;;;;;;29.77;19.57;;;;;;;-4.85;78.84;98969.06;118934;1151;65127;-80
2020/12/27 06:39:45;;;;;;;32.13;20.10;;;;;;;-4.82;78.54;98965.58;119028;1150;65103;-78
2020/12/27 06:42:19;;;;;;;37.83;21.27;;;;;;;-4.84;78.73;98963.02;119040;1150;65121;-80
2020/12/27 06:44:52;;;;;;;34.40;22.17;;;;;;;-4.84;78.89;98960.41;119298;1150;65086;-81
2020/12/27 06:47:19;;;;;;;35.70;21.50;;;;;;;-4.82;78.11;98957.78;119010;1151;65162;-80
2020/12/27 06:49:45;;;;;;;43.77;25.87;;;;;;;-4.83;79.00;98945.67;118979;1151;65130;-80
2020/12/27 06:52:24;;;;;;;45.20;26.17;;;;;;;-4.84;78.18;98950.02;118977;1150;65095;-80
2020/12/27 06:54:53;;;;;;;45.40;26.87;;;;;;;-4.85;79.08;98943.07;119308;1151;65574;-78
2020/12/27 06:57:43;;;;;;;44.70;26.80;;;;;;;-4.85;79.08;98937.88;119213;1150;65095;-80
2020/12/27 07:00:27;;;;;;;41.45;25.05;;;;;;;-4.85;78.32;98956.06;119239;1150;65214;-79
2020/12/27 07:03:09;;;;;;;47.37;25.57;;;;;;;-4.84;78.25;98952.61;119316;1150;65101;-79
2020/12/27 07:05:41;;;;;;;50.87;28.03;;;;;;;-4.80;78.48;98949.11;118974;1151;65124;-79
2020/12/27 07:08:10;;;;;;;40.20;24.70;;;;;;;-4.78;78.40;98938.71;119212;1150;65159;-78
2020/12/27 07:10:49;;;;;;;41.88;26.33;;;;;;;-4.80;79.05;98943.91;119040;1151;65127;-79
2020/12/27 07:13:17;;;;;;;45.67;28.20;;;;;;;-4.79;78.25;98931.77;119075;1150;65121;-79
2020/12/27 07:15:51;;;;;;;57.30;26.90;;;;;;;-4.77;78.85;98935.23;119254;1151;65142;-80
2020/12/27 07:18:22;;;;;;;46.00;27.40;;;;;;;-4.76;78.92;98927.44;119219;1151;65060;-79
2020/12/27 07:21:00;;;;;;;51.30;29.35;;;;;;;-4.75;78.43;98926.55;119140;1150;65127;-78
2020/12/27 07:23:30;;;;;;;51.97;29.93;;;;;;;-4.72;78.43;98923.92;118371;1151;65219;-79
2020/12/27 07:26:02;;;;;;;47.43;29.00;;;;;;;-4.70;78.26;98923.92;118889;1151;65368;-80
2020/12/27 07:28:30;;;;;;;51.70;29.77;;;;;;;-4.68;78.40;98909.19;118789;1151;65124;-80
2020/12/27 07:31:01;;;;;;;49.03;28.17;;;;;;;-4.64;78.22;98914.33;118524;1151;65102;-80
2020/12/27 07:33:33;;;;;;;56.00;31.33;;;;;;;-4.60;78.14;98904.78;118728;1150;65647;-81
2020/12/27 07:36:01;;;;;;;57.93;31.60;;;;;;;-4.57;78.69;98901.30;118901;1150;65124;-81
2020/12/27 07:39:00;;;;;;;57.07;30.87;;;;;;;-4.54;79.00;98903.87;119302;1151;65276;-81
2020/12/27 07:41:34;;;;;;;58.13;35.37;;;;;;;-4.49;78.33;98891.70;119274;1150;65137;-81
2020/12/27 07:44:03;;;;;;;56.70;31.25;;;;;;;-4.44;78.95;98888.18;119301;1151;65149;-80
2020/12/27 07:46:29;;;;;;;54.47;32.93;;;;;;;-4.36;78.32;98876.86;119308;1150;65141;-82
2020/12/27 07:48:56;;;;;;;57.27;34.53;;;;;;;-4.33;78.50;98879.42;119082;1151;65126;-80
2020/12/27 07:51:25;;;;;;;58.30;32.70;;;;;;;-4.29;78.62;98871.59;118823;1151;65272;-80
2020/12/27 07:53:56;;;;;;;56.10;33.37;;;;;;;-4.25;78.74;98878.47;119004;1151;65036;-80
2020/12/27 07:56:27;;;;;;;58.20;31.43;;;;;;;-4.19;78.07;98874.94;119150;1151;65124;-80
2020/12/27 07:58:55;;;;;;;59.00;35.07;;;;;;;-4.12;78.03;98875.76;119009;1151;65070;-79
2020/12/27 08:01:35;;;;;;;54.87;34.33;;;;;;;-4.07;78.56;98884.39;118834;1151;65130;-80
2020/12/27 08:04:04;;;;;;;60.40;34.37;;;;;;;-4.00;78.76;98883.45;118618;1151;65233;-81
2020/12/27 08:06:41;;;;;;;56.80;30.80;;;;;;;-3.93;78.07;98879.03;119270;1151;65129;-81
2020/12/27 08:09:13;;;;;;;43.63;28.40;;;;;;;-3.87;78.23;98877.23;118982;1151;65562;-81
2020/12/27 08:11:42;;;;;;;50.33;28.27;;;;;;;-3.80;77.78;98872.81;118733;1151;65117;-80
2020/12/27 08:14:10;;;;;;;53.07;32.03;;;;;;;-3.70;78.60;98868.38;119206;1151;65127;-80
2020/12/27 08:16:38;;;;;;;46.20;29.23;;;;;;;-3.64;78.31;98868.29;118793;1151;65146;-80
2020/12/27 08:19:15;;;;;;;45.95;30.75;;;;;;;-3.56;77.81;98863.84;118675;1151;65151;-79
2020/12/27 08:21:43;;;;;;;48.00;28.47;;;;;;;-3.48;77.66;98858.55;118996;1151;65113;-78
2020/12/27 08:24:12;;;;;;;47.53;27.83;;;;;;;-3.42;77.31;98858.45;119100;1151;65140;-80
2020/12/27 08:26:47;;;;;;;48.63;29.67;;;;;;;-3.35;78.15;98852.29;119029;1151;65548;-79
2020/12/27 08:29:17;;;;;;;50.90;34.40;;;;;;;-3.28;77.19;98847.88;119066;1151;65313;-77
2020/12/27 08:31:49;;;;;;;49.47;29.77;;;;;;;-3.20;77.77;98849.48;118538;1151;65630;-80
2020/12/27 08:34:24;;;;;;;52.60;31.50;;;;;;;-3.12;77.20;98860.66;119077;1151;65128;-81
2020/12/27 08:36:53;;;;;;;48.13;28.07;;;;;;;-3.04;77.53;98852.73;119025;1151;65105;-80
2020/12/27 08:39:44;;;;;;;41.57;26.47;;;;;;;-2.94;76.96;98861.29;119009;1151;65127;-80
2020/12/27 08:42:30;;;;;;;48.30;29.45;;;;;;;-2.86;77.23;98862.03;118880;1151;65105;-80
2020/12/27 08:45:17;;;;;;;38.00;24.90;;;;;;;-2.78;76.82;98847.12;118977;1151;65191;-81
2020/12/27 08:47:46;;;;;;;45.00;28.00;;;;;;;-2.70;77.36;98845.26;118913;1151;65123;-89
2020/12/27 08:50:17;;;;;;;;;;;;;;;-2.62;76.80;98855.57;118828;1151;65099;-80
2020/12/27 08:52:50;;;;;;;47.87;28.83;;;;;;;-2.55;77.35;98853.73;119071;1151;65082;-81
2020/12/27 08:55:24;;;;;;;41.90;27.95;;;;;;;-2.50;76.33;98850.16;119231;1151;65150;-84
2020/12/27 08:57:50;;;;;;;54.70;31.07;;;;;;;-2.45;76.27;98843.13;119037;1151;65130;-80
2020/12/27 09:00:17;;;;;;;40.37;28.37;;;;;;;-2.38;76.89;98835.17;119046;1148;65179;-76
2020/12/27 09:02:43;;;;;;;44.50;28.80;;;;;;;-2.33;76.44;98831.59;119064;1151;65076;-78
2020/12/27 09:05:14;;;;;;;39.17;27.43;;;;;;;-2.29;76.19;98833.27;119147;1151;65226;-80
2020/12/27 09:07:43;;;;;;;44.83;29.40;;;;;;;-2.23;76.26;98814.03;119157;1151;65210;-81
2020/12/27 09:10:17;;;;;;;45.70;27.70;;;;;;;-2.14;76.77;98823.43;119120;1151;65214;-79
2020/12/27 09:13:03;;;;;;;55.13;40.77;;;;;;;-2.04;76.47;98810.17;119132;1151;65223;-80
2020/12/27 09:15:38;;;;;;;46.00;31.47;;;;;;;-1.90;76.19;98811.66;119101;1151;65108;-83
2020/12/27 09:18:07;;;;;;;42.10;26.20;;;;;;;-1.83;75.89;98792.37;118732;1151;65045;-82
2020/12/27 09:20:35;;;;;;;41.60;27.55;;;;;;;-1.77;76.15;98787.01;118627;1151;65102;-86
2020/12/27 09:23:16;;;;;;;36.53;24.83;;;;;;;-1.72;74.99;98787.77;118704;1151;65109;-83
2020/12/27 09:25:45;;;;;;;42.97;28.13;;;;;;;-1.67;75.48;98772.86;119170;1150;65126;-82
2020/12/27 09:28:13;;;;;;;46.70;29.40;;;;;;;-1.59;75.71;98770.09;119210;1149;65140;-77
2020/12/27 09:30:41;;;;;;;45.40;28.93;;;;;;;-1.54;74.86;98768.24;119079;1151;65574;-80
2020/12/27 09:33:08;;;;;;;49.30;30.00;;;;;;;-1.48;75.04;98772.47;119017;1151;65172;-79
2020/12/27 09:35:35;;;;;;;48.37;31.60;;;;;;;-1.45;74.73;98772.40;119063;1151;65121;-78
2020/12/27 09:38:02;;;;;;;51.70;32.00;;;;;;;-1.39;75.08;98767.91;119051;1151;65124;-78
2020/12/27 09:40:29;;;;;;;54.65;33.15;;;;;;;-1.31;75.41;98757.28;119033;1151;65044;-78
2020/12/27 09:43:04;;;;;;;56.33;32.53;;;;;;;-1.26;74.61;98752.81;118952;1151;65213;-78
2020/12/27 09:45:32;;;;;;;54.80;35.90;;;;;;;-1.20;74.71;98743.95;119028;1151;65145;-78
2020/12/27 09:48:01;;;;;;;55.77;34.67;;;;;;;-1.17;74.34;98746.50;119014;1151;65175;-79
2020/12/27 09:50:36;;;;;;;56.40;34.27;;;;;;;-1.12;74.49;98739.41;119014;1151;65308;-79
2020/12/27 09:53:04;;;;;;;50.30;31.27;;;;;;;-1.05;74.42;98732.25;119036;1151;65129;-79
2020/12/27 09:55:34;;;;;;;49.63;30.73;;;;;;;-0.97;74.42;98728.58;118985;1151;65057;-79
2020/12/27 09:58:00;;;;;;;;;;;;;;;-0.91;73.96;98720.56;118448;1151;65097;-77
2020/12/27 10:00:26;;;;;;;44.90;27.77;;;;;;;-0.86;74.46;98724.84;118820;1151;65153;-77
2020/12/27 10:02:56;;;;;;;42.83;27.70;;;;;;;-0.81;73.97;98712.50;118715;1151;65127;-78
2020/12/27 10:05:22;;;;;;;42.43;26.45;;;;;;;-0.72;74.54;98710.48;119061;1151;65504;-78
2020/12/27 10:07:49;;;;;;;41.67;27.37;;;;;;;-0.64;73.92;98702.44;119035;1151;65150;-79
2020/12/27 10:10:15;;;;;;;44.15;27.70;;;;;;;-0.53;74.10;98694.30;118906;1151;65219;-78
2020/12/27 10:12:42;;;;;;;38.67;23.87;;;;;;;-0.43;74.08;98689.68;118999;1151;65192;-79
2020/12/27 10:15:09;;;;;;;31.97;21.33;;;;;;;-0.34;73.54;98671.97;119036;1151;65073;-79
2020/12/27 10:17:36;;;;;;;35.55;22.50;;;;;;;-0.26;73.59;98662.13;118996;1151;65599;-82
2020/12/27 10:20:10;;;;;;;58.10;34.53;;;;;;;-0.18;72.78;98656.67;118982;1151;65131;-84
2020/12/27 10:22:38;;;;;;;93.50;52.03;;;;;;;-0.11;72.46;98625.91;118855;1151;65132;-83
2020/12/27 10:25:06;;;;;;;52.75;34.70;;;;;;;-0.04;72.48;98616.98;118630;1151;65104;-89
2020/12/27 10:27:34;;;;;;;84.60;58.73;;;;;;;0.02;73.10;98614.16;118868;1151;65630;-87
2020/12/27 10:30:04;;;;;;;37.07;23.60;;;;;;;0.10;72.33;98612.16;119066;1151;65060;-85
2020/12/27 10:32:31;;;;;;;39.70;24.72;;;;;;;0.15;72.42;98604.16;119131;1151;65283;-86
2020/12/27 10:34:57;;;;;;;42.97;24.73;;;;;;;0.20;71.96;98607.50;119008;1151;65130;-88
2020/12/27 10:37:24;;;;;;;44.75;27.15;;;;;;;0.26;71.52;98598.58;119516;1151;65005;-86
2020/12/27 10:39:50;;;;;;;74.60;50.00;;;;;;;0.31;71.76;98587.05;118944;1151;65193;-86
2020/12/27 10:42:16;;;;;;;68.15;54.75;;;;;;;0.41;71.62;98571.89;118774;1151;65124;-88
2020/12/27 10:44:43;;;;;;;207.47;116.23;;;;;;;0.50;71.39;98571.60;118878;1151;65110;-86
2020/12/27 10:47:09;;;;;;;79.47;57.77;;;;;;;0.57;71.57;98565.22;118729;1151;65153;-87
2020/12/27 10:49:36;;;;;;;63.50;56.13;;;;;;;0.60;71.50;98554.63;119052;1151;65117;-85
2020/12/27 10:52:02;;;;;;;36.80;23.47;;;;;;;0.61;70.45;98545.02;119049;1151;65212;-87
2020/12/27 10:54:29;;;;;;;43.97;25.77;;;;;;;0.60;70.94;98535.42;119010;1151;65099;-87
2020/12/27 10:56:55;;;;;;;34.07;22.10;;;;;;;0.64;70.85;98521.31;119053;1150;65134;-88
2020/12/27 10:59:22;;;;;;;33.53;22.67;;;;;;;0.71;70.88;98520.20;119038;1151;65124;-88
2020/12/27 11:01:49;;;;;;;28.75;17.92;;;;;;;0.80;70.00;98522.48;118602;1151;65117;-86
2020/12/27 11:04:17;;;;;;;26.52;16.65;;;;;;;0.85;69.03;98510.06;118558;1151;65196;-87
2020/12/27 11:06:44;;;;;;;29.35;17.80;;;;;;;0.87;69.76;98505.63;118920;1151;65072;-86
2020/12/27 11:09:11;;;;;;;29.80;18.13;;;;;;;0.89;68.74;98497.69;118552;1151;65111;-85
2020/12/27 11:11:38;;;;;;;28.47;20.77;;;;;;;0.92;68.69;98486.22;118690;1151;65213;-88
2020/12/27 11:14:06;;;;;;;35.53;22.97;;;;;;;0.93;68.23;98491.43;118841;1151;65115;-87
2020/12/27 11:16:33;;;;;;;42.23;26.33;;;;;;;0.93;67.52;98478.31;119060;1151;65163;-86
2020/12/27 11:19:00;;;;;;;51.47;31.67;;;;;;;0.93;68.92;98480.09;119057;1151;65217;-87
2020/12/27 11:21:28;;;;;;;47.05;29.45;;;;;;;0.94;69.25;98468.67;118998;1151;65111;-87
2020/12/27 11:23:55;;;;;;;51.10;32.17;;;;;;;0.94;69.36;98460.80;119145;1151;65168;-87